.
WxDataArchive / Data Records for 2009-11-11
2009-11-10 November 2009 2009-11-12

Data Records for Wednesday, 11 November 2009

Time	Temp	Chill	HIndex	Humid	Dewpt	 Wind 	HiWind	WindDir	Rain 	Barom 
-----	----	-----	------	-----	-----	------	------	-------	-----	----- 
00:00	44.2	44.2	44.2	63	32.4	1	4	45	0.00	30.441 
00:05	44.1	44.1	44.1	62	31.9	1	3	135	0.00	30.441 
00:10	43.9	43.9	43.9	62	31.7	1	3	45	0.00	30.441 
00:15	43.8	43.8	43.8	60	30.8	1	3	45	0.00	30.439 
00:20	43.6	43.6	43.6	60	30.6	1	3	90	0.00	30.439 
00:25	43.6	43.6	43.6	59	30.2	1	5	45	0.00	30.439 
00:30	43.5	43.5	43.5	59	30.1	0	3	135	0.00	30.445 
00:35	43.3	43.3	43.3	58	29.5	1	5	45	0.00	30.445 
00:40	43.2	43.2	43.2	58	29.4	0	3	45	0.00	30.445 
00:45	43.1	43.1	43.1	57	28.9	1	3	68	0.00	30.439 
00:50	42.9	42.9	42.9	57	28.7	1	3	45	0.00	30.439 
00:55	42.9	42.9	42.9	56	28.3	1	4	68	0.00	30.439 
01:00	42.8	42.8	42.8	56	28.2	1	6	112	0.00	30.438 
01:05	42.6	42.6	42.6	55	27.6	1	3	45	0.00	30.438 
01:10	42.6	42.6	42.6	54	27.1	1	5	45	0.00	30.438 
01:15	42.6	42.6	42.6	54	27.1	1	5	112	0.00	30.433 
01:20	42.5	42.5	42.5	54	27.0	1	3	112	0.00	30.433 
01:25	42.3	42.3	42.3	53	26.4	1	5	112	0.00	30.433 
01:30	42.3	42.3	42.3	53	26.4	1	3	90	0.00	30.431 
01:35	42.2	42.2	42.2	52	25.9	1	6	45	0.00	30.431 
01:40	42.2	42.2	42.2	51	25.4	1	4	45	0.00	30.431 
01:45	42.2	42.2	42.2	50	24.9	1	5	112	0.00	30.427 
01:50	42.1	42.1	42.1	50	24.8	1	4	45	0.00	30.427 
01:55	41.9	41.9	41.9	51	25.1	1	4	112	0.00	30.427 
02:00	41.9	41.9	41.9	50	24.6	1	4	112	0.00	30.434 
02:05	41.8	41.8	41.8	51	25.0	1	6	68	0.00	30.434 
02:10	41.8	41.8	41.8	51	25.0	1	4	45	0.00	30.434 
02:15	41.8	41.8	41.8	51	25.0	2	6	22	0.00	30.430 
02:20	41.8	41.8	41.8	51	25.0	2	7	112	0.00	30.430 
02:25	41.6	41.6	41.6	52	25.3	1	7	112	0.00	30.430 
02:30	41.6	41.6	41.6	53	25.8	1	4	112	0.00	30.432 
02:35	41.3	41.3	41.3	54	25.9	1	4	90	0.00	30.432 
02:40	41.2	41.2	41.2	55	26.3	1	5	112	0.00	30.432 
02:45	41.1	41.1	41.1	56	26.6	1	5	135	0.00	30.431 
02:50	40.9	40.9	40.9	57	26.9	1	5	135	0.00	30.431 
02:55	40.8	40.8	40.8	58	27.2	2	10	112	0.00	30.431 
03:00	40.8	40.8	40.8	58	27.2	2	10	90	0.00	30.430 
03:05	40.6	40.6	40.6	59	27.4	1	4	90	0.00	30.430 
03:10	40.5	40.5	40.5	60	27.7	2	4	68	0.00	30.430 
03:15	40.3	40.3	40.3	61	27.9	1	4	45	0.00	30.430 
03:20	40.3	40.3	40.3	62	28.3	2	4	112	0.00	30.430 
03:25	40.3	40.3	40.3	62	28.3	1	7	135	0.00	30.430 
03:30	40.3	40.3	40.3	62	28.3	1	3	112	0.00	30.432 
03:35	40.3	40.3	40.3	63	28.7	1	5	90	0.00	30.432 
03:40	40.3	40.3	40.3	63	28.7	1	5	68	0.00	30.432 
03:45	40.3	40.3	40.3	64	29.1	1	4	68	0.00	30.434 
03:50	40.3	40.3	40.3	64	29.1	1	5	112	0.00	30.434 
03:55	40.2	40.2	40.2	65	29.4	1	5	112	0.00	30.434 
04:00	40.2	40.2	40.2	65	29.4	1	4	112	0.00	30.437 
04:05	40.2	40.2	40.2	65	29.4	1	4	90	0.00	30.437 
04:10	40.1	40.1	40.1	66	29.7	1	4	45	0.00	30.437 
04:15	40.1	40.1	40.1	66	29.7	2	6	135	0.00	30.437 
04:20	40.1	40.1	40.1	66	29.7	1	5	45	0.00	30.437 
04:25	39.9	39.9	39.9	67	29.8	1	4	90	0.00	30.437 
04:30	39.9	39.9	39.9	67	29.8	1	4	90	0.00	30.440 
04:35	39.8	39.8	39.8	68	30.1	1	3	45	0.00	30.440 
04:40	39.6	39.6	39.6	68	29.9	1	7	22	0.00	30.440 
04:45	39.6	39.6	39.6	68	29.9	1	3	68	0.00	30.439 
04:50	39.5	39.5	39.5	69	30.2	1	4	90	0.00	30.439 
04:55	39.5	39.5	39.5	69	30.2	1	5	112	0.00	30.439 
05:00	39.3	39.3	39.3	69	30.0	1	4	90	0.00	30.441 
05:05	39.2	39.2	39.2	70	30.3	1	2	68	0.00	30.441 
05:10	39.1	39.1	39.1	70	30.2	1	5	135	0.00	30.441 
05:15	38.9	38.9	38.9	71	30.3	0	2	0	0.00	30.443 
05:20	38.9	38.9	38.9	72	30.7	1	4	112	0.00	30.443 
05:25	38.8	38.8	38.8	72	30.6	1	4	112	0.00	30.443 
05:30	38.8	38.8	38.8	73	30.9	1	6	112	0.00	30.442 
05:35	38.8	38.8	38.8	73	30.9	1	4	112	0.00	30.442 
05:40	38.6	38.6	38.6	74	31.0	1	5	45	0.00	30.442 
05:45	38.5	38.5	38.5	75	31.3	1	5	112	0.00	30.442 
05:50	38.5	38.5	38.5	76	31.6	1	5	45	0.00	30.442 
05:55	38.3	38.3	38.3	77	31.7	0	2	22	0.00	30.442 
06:00	38.2	38.2	38.2	77	31.6	1	6	22	0.00	30.441 
06:05	38.0	38.0	38.0	78	31.8	1	2	45	0.00	30.441 
06:10	38.0	38.0	38.0	78	31.8	1	3	112	0.00	30.441 
06:15	37.9	37.9	37.9	78	31.7	1	4	112	0.00	30.442 
06:20	37.8	37.8	37.8	78	31.6	1	2	112	0.00	30.442 
06:25	37.8	37.8	37.8	78	31.6	1	4	45	0.00	30.442 
06:30	37.8	37.8	37.8	78	31.6	1	5	22	0.00	30.441 
06:35	37.8	37.8	37.8	78	31.6	1	4	90	0.00	30.441 
06:40	37.6	37.6	37.6	78	31.4	0	3	68	0.00	30.441 
06:45	37.6	37.6	37.6	78	31.4	1	3	68	0.00	30.440 
06:50	37.5	37.5	37.5	77	31.0	1	4	112	0.00	30.440 
06:55	37.5	37.5	37.5	77	31.0	1	5	68	0.00	30.440 
07:00	37.3	37.3	37.3	77	30.8	0	2	90	0.00	30.442 
07:05	37.2	37.2	37.2	77	30.7	0	1	90	0.00	30.442 
07:10	37.0	37.0	37.0	77	30.5	1	4	90	0.00	30.442 
07:15	37.0	37.0	37.0	77	30.5	0	3	112	0.00	30.441 
07:20	37.0	37.0	37.0	76	30.2	1	5	90	0.00	30.441 
07:25	37.2	37.2	37.2	76	30.3	1	7	22	0.00	30.441 
07:30	37.3	37.3	37.3	76	30.4	1	4	90	0.00	30.442 
07:35	37.3	37.3	37.3	75	30.1	1	4	90	0.00	30.442 
07:40	37.5	37.5	37.5	75	30.3	1	3	45	0.00	30.442 
07:45	37.5	37.5	37.5	75	30.3	1	3	45	0.00	30.442 
07:50	37.6	37.6	37.6	75	30.4	1	5	135	0.00	30.442 
07:55	37.8	37.8	37.8	75	30.6	1	3	68	0.00	30.442 
08:00	37.9	37.9	37.9	74	30.4	1	4	45	0.00	30.444 
08:05	38.5	38.5	38.5	73	30.6	0	2	158	0.00	30.444 
08:10	38.9	38.9	38.9	73	31.0	0	3	112	0.00	30.444 
08:15	39.3	39.3	39.3	72	31.0	0	3	45	0.00	30.446 
08:20	39.8	39.8	39.8	71	31.2	0	2	90	0.00	30.446 
08:25	40.3	40.3	40.3	70	31.3	1	4	135	0.00	30.446 
08:30	40.8	40.8	40.8	70	31.8	1	3	45	0.00	30.453 
08:35	41.3	41.3	41.3	69	31.9	1	3	112	0.00	30.453 
08:40	41.6	41.6	41.6	69	32.2	1	4	112	0.00	30.453 
08:45	41.9	41.9	41.9	70	32.8	1	4	112	0.00	30.457 
08:50	42.1	42.1	42.1	70	33.0	2	6	112	0.00	30.457 
08:55	42.3	42.3	42.3	69	32.9	1	5	112	0.00	30.457 
09:00	42.9	42.9	42.9	68	33.1	2	6	112	0.00	30.454 
09:05	43.5	43.5	43.5	67	33.3	1	5	68	0.00	30.454 
09:10	44.1	44.1	44.1	67	33.9	1	5	90	0.00	30.454 
09:15	44.6	44.6	44.6	65	33.6	1	4	90	0.00	30.454 
09:20	45.1	45.1	45.1	65	34.0	1	4	45	0.00	30.454 
09:25	45.7	45.7	45.7	64	34.2	2	6	135	0.00	30.454 
09:30	45.8	45.8	45.8	64	34.3	2	7	112	0.00	30.455 
09:35	45.8	45.8	45.8	64	34.3	2	9	135	0.00	30.455 
09:40	45.8	45.8	45.8	65	34.7	2	6	112	0.00	30.455 
09:45	45.8	45.8	45.8	64	34.3	2	6	90	0.00	30.453 
09:50	46.0	44.2	46.0	64	34.5	4	12	112	0.00	30.453 
09:55	46.2	46.2	46.2	65	35.1	2	6	90	0.00	30.453 
10:00	46.5	46.5	46.5	63	34.6	3	11	112	0.00	30.455 
10:05	46.7	45.1	46.7	62	34.4	4	10	90	0.00	30.455 
10:10	46.7	45.1	46.7	62	34.4	4	14	112	0.00	30.455 
10:15	46.8	46.8	46.8	63	34.9	3	10	90	0.00	30.461 
10:20	46.8	45.2	46.8	62	34.5	4	13	112	0.00	30.461 
10:25	47.0	47.0	47.0	62	34.7	3	10	90	0.00	30.461 
10:30	47.3	47.3	47.3	63	35.4	2	6	112	0.00	30.465 
10:35	47.6	47.6	47.6	61	34.8	3	12	112	0.00	30.465 
10:40	47.7	47.7	47.7	61	34.9	3	8	112	0.00	30.465 
10:45	47.7	47.7	47.7	61	34.9	3	9	112	0.00	30.467 
10:50	47.9	47.9	47.9	61	35.1	2	5	22	0.00	30.467 
10:55	48.2	48.2	48.2	61	35.4	3	10	90	0.00	30.467 
11:00	48.2	46.8	48.2	60	35.0	4	10	112	0.00	30.469 
11:05	48.0	46.6	48.0	60	34.8	4	12	112	0.00	30.469 
11:10	48.0	45.9	48.0	61	35.2	5	11	90	0.00	30.469 
11:15	48.3	48.3	48.3	60	35.1	3	10	90	0.00	30.469 
11:20	48.6	47.3	48.6	57	34.1	4	10	112	0.00	30.469 
11:25	48.8	47.5	48.8	57	34.3	4	11	90	0.00	30.469 
11:30	48.8	46.8	48.8	55	33.4	5	16	90	0.00	30.466 
11:35	48.9	48.9	48.9	55	33.5	3	9	112	0.00	30.466 
11:40	49.2	49.2	49.2	55	33.7	2	10	135	0.00	30.466 
11:45	49.6	49.6	49.6	54	33.6	2	9	112	0.00	30.453 
11:50	49.8	49.8	49.8	53	33.4	3	10	90	0.00	30.453 
11:55	49.9	48.8	49.9	52	33.0	4	12	112	0.00	30.453 
12:00	49.8	48.0	49.8	51	32.4	5	12	112	0.00	30.451 
12:05	50.1	50.1	50.1	52	33.2	2	7	112	0.00	30.451 
12:10	50.5	50.5	50.5	51	33.1	1	4	45	0.00	30.451 
12:15	50.7	50.7	50.7	50	32.7	2	7	112	0.00	30.438 
12:20	51.1	51.1	51.1	50	33.1	2	6	112	0.00	30.438 
12:25	51.0	51.0	51.0	46	31.0	3	7	112	0.00	30.438 
12:30	51.0	51.0	51.0	48	32.0	3	11	90	0.00	30.434 
12:35	51.3	51.3	51.3	45	30.7	3	8	112	0.00	30.434 
12:40	51.6	51.6	51.6	46	31.5	2	7	112	0.00	30.434 
12:45	51.7	51.7	51.7	44	30.5	2	5	112	0.00	30.425 
12:50	51.7	51.7	51.7	43	29.9	3	13	112	0.00	30.425 
12:55	51.9	51.9	51.9	45	31.2	2	8	90	0.00	30.425 
13:00	52.0	52.0	52.0	45	31.3	2	10	90	0.00	30.421 
13:05	52.0	52.0	52.0	46	31.9	3	7	90	0.00	30.421 
13:10	52.0	52.0	52.0	44	30.8	2	7	90	0.00	30.421 
13:15	52.0	52.0	52.0	45	31.3	3	11	90	0.00	30.415 
13:20	51.9	51.9	51.9	47	32.3	3	11	90	0.00	30.415 
13:25	51.9	51.9	51.9	47	32.3	4	10	112	0.00	30.415 
13:30	51.7	51.7	51.7	48	32.6	4	9	112	0.00	30.406 
13:35	51.6	51.6	51.6	47	32.0	4	10	90	0.00	30.406 
13:40	51.7	51.7	51.7	49	33.2	3	11	90	0.00	30.406 
13:45	51.9	51.9	51.9	50	33.9	2	9	112	0.00	30.404 
13:50	51.7	51.7	51.7	50	33.7	3	7	112	0.00	30.404 
13:55	51.9	51.9	51.9	51	34.3	1	6	45	0.00	30.404 
14:00	52.0	52.0	52.0	51	34.4	3	11	112	0.00	30.397 
14:05	52.2	52.2	52.2	51	34.6	2	6	45	0.00	30.397 
14:10	52.3	52.3	52.3	50	34.2	1	4	45	0.00	30.397 
14:15	52.5	52.5	52.5	49	33.9	2	12	112	0.00	30.391 
14:20	52.5	52.5	52.5	50	34.4	2	10	112	0.00	30.391 
14:25	52.5	52.5	52.5	48	33.4	3	9	90	0.00	30.391 
14:30	52.5	52.5	52.5	49	33.9	2	5	90	0.00	30.389 
14:35	52.5	52.5	52.5	48	33.4	2	7	135	0.00	30.389 
14:40	52.5	52.5	52.5	48	33.4	3	6	135	0.00	30.389 
14:45	52.5	52.5	52.5	47	32.9	2	10	112	0.00	30.385 
14:50	52.6	52.6	52.6	49	34.0	2	7	68	0.00	30.385 
14:55	52.6	52.6	52.6	45	31.9	2	10	45	0.00	30.385 
15:00	52.6	52.6	52.6	45	31.9	2	5	45	0.00	30.378 
15:05	52.6	52.6	52.6	45	31.9	1	5	68	0.00	30.378 
15:10	52.6	52.6	52.6	44	31.3	3	15	90	0.00	30.378 
15:15	52.5	52.5	52.5	44	31.2	3	8	90	0.00	30.377 
15:20	52.3	52.3	52.3	43	30.5	3	7	112	0.00	30.377 
15:25	52.2	52.2	52.2	42	29.8	3	10	90	0.00	30.377 
15:30	52.0	52.0	52.0	43	30.2	2	6	112	0.00	30.377 
15:35	52.0	52.0	52.0	44	30.8	3	9	112	0.00	30.377 
15:40	51.9	51.9	51.9	42	29.5	3	8	90	0.00	30.377 
15:45	51.9	51.9	51.9	44	30.7	2	6	45	0.00	30.371 
15:50	51.9	51.9	51.9	44	30.7	2	11	68	0.00	30.371 
15:55	51.6	51.6	51.6	43	29.8	3	6	112	0.00	30.371 
16:00	51.4	51.4	51.4	45	30.8	2	6	112	0.00	30.366 
16:05	51.1	51.1	51.1	43	29.4	2	9	112	0.00	30.366 
16:10	51.1	51.1	51.1	44	30.0	2	7	135	0.00	30.366 
16:15	51.0	51.0	51.0	44	29.9	1	3	68	0.00	30.366 
16:20	50.8	50.8	50.8	44	29.7	1	5	45	0.00	30.366 
16:25	50.7	50.7	50.7	44	29.6	1	4	22	0.00	30.366 
16:30	50.4	50.4	50.4	43	28.8	2	6	112	0.00	30.364 
16:35	50.2	50.2	50.2	43	28.6	2	9	135	0.00	30.364 
16:40	50.1	50.1	50.1	42	27.9	2	7	68	0.00	30.364 
16:45	49.9	49.9	49.9	43	28.3	2	9	135	0.00	30.367 
16:50	49.6	49.6	49.6	43	28.0	1	5	68	0.00	30.367 
16:55	49.4	49.4	49.4	43	27.9	1	4	112	0.00	30.367 
17:00	49.2	49.2	49.2	42	27.1	2	10	112	0.00	30.367 
17:05	48.9	48.9	48.9	42	26.8	1	5	112	0.00	30.367 
17:10	48.8	48.8	48.8	44	27.9	0	2	135	0.00	30.367 
17:15	48.3	48.3	48.3	45	28.0	0	2	112	0.00	30.369 
17:20	47.9	47.9	47.9	46	28.1	0	1	135	0.00	30.369 
17:25	47.3	47.3	47.3	47	28.1	0	2	22	0.00	30.369 
17:30	46.8	46.8	46.8	48	28.2	0	1	22	0.00	30.377 
17:35	46.5	46.5	46.5	49	28.4	0	2	22	0.00	30.377 
17:40	46.2	46.2	46.2	49	28.1	0	2	22	0.00	30.377 
17:45	46.0	46.0	46.0	50	28.4	0	0	---	0.00	30.377 
17:50	45.5	45.5	45.5	50	28.0	0	2	22	0.00	30.377 
17:55	45.1	45.1	45.1	50	27.6	0	1	22	0.00	30.377 
18:00	44.8	44.8	44.8	51	27.8	0	2	22	0.00	30.380 
18:05	44.6	44.6	44.6	51	27.6	0	1	22	0.00	30.380 
18:10	44.5	44.5	44.5	52	28.0	0	0	---	0.00	30.380 
18:15	44.1	44.1	44.1	53	28.1	0	0	---	0.00	30.384 
18:20	43.6	43.6	43.6	53	27.6	0	0	---	0.00	30.384 
18:25	43.3	43.3	43.3	54	27.8	0	1	22	0.00	30.384 
18:30	43.1	43.1	43.1	54	27.6	0	2	22	0.00	30.381 
18:35	43.1	43.1	43.1	54	27.6	0	1	22	0.00	30.381 
18:40	42.9	42.9	42.9	54	27.4	0	2	22	0.00	30.381 
18:45	43.1	43.1	43.1	54	27.6	1	3	135	0.00	30.372 
18:50	43.2	43.2	43.2	54	27.7	0	2	135	0.00	30.372 
18:55	43.2	43.2	43.2	53	27.2	1	5	112	0.00	30.372 
19:00	43.1	43.1	43.1	53	27.1	0	1	112	0.00	30.373 
19:05	42.8	42.8	42.8	53	26.9	0	1	112	0.00	30.373 
19:10	42.6	42.6	42.6	53	26.7	0	3	112	0.00	30.373 
19:15	42.3	42.3	42.3	54	26.9	0	1	112	0.00	30.375 
19:20	41.9	41.9	41.9	54	26.5	0	1	112	0.00	30.375 
19:25	41.6	41.6	41.6	54	26.2	0	1	112	0.00	30.375 
19:30	41.3	41.3	41.3	55	26.4	0	1	112	0.00	30.377 
19:35	41.1	41.1	41.1	55	26.2	0	3	112	0.00	30.377 
19:40	40.8	40.8	40.8	56	26.3	0	1	112	0.00	30.377 
19:45	40.6	40.6	40.6	56	26.1	0	3	112	0.00	30.372 
19:50	40.6	40.6	40.6	56	26.1	0	2	112	0.00	30.372 
19:55	40.5	40.5	40.5	56	26.1	0	3	112	0.00	30.372 
20:00	40.3	40.3	40.3	57	26.3	0	2	112	0.00	30.368 
20:05	40.2	40.2	40.2	58	26.6	0	1	112	0.00	30.368 
20:10	39.9	39.9	39.9	58	26.3	0	1	112	0.00	30.368 
20:15	39.6	39.6	39.6	59	26.5	0	1	112	0.00	30.359 
20:20	39.3	39.3	39.3	59	26.2	0	1	112	0.00	30.359 
20:25	39.2	39.2	39.2	60	26.5	0	1	112	0.00	30.359 
20:30	38.9	38.9	38.9	61	26.6	0	0	---	0.00	30.360 
20:35	38.6	38.6	38.6	61	26.3	0	0	---	0.00	30.360 
20:40	38.2	38.2	38.2	62	26.3	0	0	---	0.00	30.360 
20:45	37.8	37.8	37.8	62	26.0	0	0	---	0.00	30.359 
20:50	37.3	37.3	37.3	63	25.9	0	0	---	0.00	30.359 
20:55	37.0	37.0	37.0	64	26.0	0	0	---	0.00	30.359 
21:00	36.6	36.6	36.6	65	26.0	0	0	---	0.00	30.355 
21:05	36.2	36.2	36.2	67	26.3	0	1	112	0.00	30.355 
21:10	36.0	36.0	36.0	67	26.1	0	0	---	0.00	30.355 
21:15	36.0	36.0	36.0	68	26.5	0	1	112	0.00	30.346 
21:20	36.2	36.2	36.2	68	26.7	0	1	112	0.00	30.346 
21:25	36.5	36.5	36.5	68	27.0	0	2	112	0.00	30.346 
21:30	36.6	36.6	36.6	68	27.1	0	2	112	0.00	30.337 
21:35	36.6	36.6	36.6	67	26.7	0	0	---	0.00	30.337 
21:40	36.6	36.6	36.6	68	27.1	0	1	112	0.00	30.337 
21:45	36.5	36.5	36.5	69	27.3	0	1	112	0.00	30.336 
21:50	36.3	36.3	36.3	69	27.1	0	0	---	0.00	30.336 
21:55	36.0	36.0	36.0	69	26.8	0	0	---	0.00	30.336 
22:00	35.6	35.6	35.6	70	26.8	0	0	---	0.00	30.345 
22:05	35.3	35.3	35.3	71	26.9	0	0	---	0.00	30.345 
22:10	34.9	34.9	34.9	71	26.5	0	0	---	0.00	30.345 
22:15	34.4	34.4	34.4	73	26.7	0	0	---	0.00	30.345 
22:20	34.1	34.1	34.1	74	26.7	0	0	---	0.00	30.345 
22:25	33.8	33.8	33.8	75	26.7	0	0	---	0.00	30.345 
22:30	33.7	33.7	33.7	75	26.6	0	0	---	0.00	30.343 
22:35	33.5	33.5	33.5	76	26.8	0	0	---	0.00	30.343 
22:40	33.4	33.4	33.4	76	26.7	0	0	---	0.00	30.343 
22:45	33.1	33.1	33.1	77	26.7	0	0	---	0.00	30.343 
22:50	32.9	32.9	32.9	77	26.5	0	0	---	0.00	30.343 
22:55	32.8	32.8	32.8	77	26.4	0	0	---	0.00	30.343 
23:00	32.8	32.8	32.8	78	26.7	0	0	---	0.00	30.342 
23:05	32.8	32.8	32.8	78	26.7	0	0	---	0.00	30.342 
23:10	32.7	32.7	32.7	78	26.6	0	0	---	0.00	30.342 
23:15	32.7	32.7	32.7	78	26.6	0	0	---	0.00	30.343 
23:20	32.8	32.8	32.8	78	26.7	0	0	---	0.00	30.343 
23:25	32.9	32.9	32.9	77	26.5	0	0	---	0.00	30.343 
23:30	32.9	32.9	32.9	77	26.5	0	0	---	0.00	30.352 
23:35	32.9	32.9	32.9	77	26.5	0	0	---	0.00	30.352 
23:40	32.8	32.8	32.8	77	26.4	0	0	---	0.00	30.352 
23:45	32.5	32.5	32.5	77	26.1	0	0	---	0.00	30.347 
23:50	32.2	32.2	32.2	77	25.8	0	0	---	0.00	30.347 
23:55	32.1	32.1	32.1	77	25.7	0	0	---	0.00	30.347 

CoCoRaHS
IN-AL-39
A2 Web Hosting
Creative Commons License
GoDaddy
search engine by freefind advanced

loaded 2018-11-15 06:08:17 • last modified 2010-11-18 10:43:29
Privacy PolicyDisclaimer
• wx.awcolley.com is powered by PmWiki v.2002016 •
• all content (unless otherwise noted) © 2018 A W Colley